Time;durP1;ratioP1;P1;durP2;ratioP2;P2;SDS_P1;SDS_P2;PMS_P1;PMS_P2;Temp;Humidity;BMP_temperature;BMP_pressure;BME280_temperature;BME280_humidity;BME280_pressure;Samples;Min_cycle;Max_cycle;Signal;HPM_P1;HPM_P2
2023/03/02 00:01:56;;;;;;;22.40;8.00;;;;;;;-1.31;100.00;101257.84;104894;1303;26537;-71
2023/03/02 00:04:28;;;;;;;20.00;7.60;;;;;;;-1.37;100.00;101260.73;104123;1303;1003820;-71
2023/03/02 00:07:04;;;;;;;19.50;8.00;;;;;;;-1.42;100.00;101263.58;104868;1303;25406;-71
2023/03/02 00:09:33;;;;;;;20.20;9.00;;;;;;;-1.47;100.00;101265.39;104882;1303;25377;-72
2023/03/02 00:12:02;;;;;;;17.50;7.40;;;;;;;-1.52;100.00;101261.38;104911;1303;22552;-71
2023/03/02 00:14:31;;;;;;;21.90;8.10;;;;;;;-1.57;100.00;101262.45;104137;1303;1003645;-70
2023/03/02 00:17:01;;;;;;;17.00;7.30;;;;;;;-1.63;100.00;101253.14;104908;1303;25329;-70
2023/03/02 00:19:30;;;;;;;19.70;6.80;;;;;;;-1.68;100.00;101255.47;104799;1303;25284;-70
2023/03/02 00:21:59;;;;;;;20.10;7.90;;;;;;;-1.74;100.00;101258.89;104107;1302;1003558;-70
2023/03/02 00:24:28;;;;;;;16.80;6.50;;;;;;;-1.80;100.00;101260.58;104148;1303;1003544;-70
2023/03/02 00:26:57;;;;;;;17.00;7.10;;;;;;;-1.88;100.00;101259.27;104879;1303;25377;-71
2023/03/02 00:29:26;;;;;;;15.30;6.50;;;;;;;-1.96;100.00;101260.48;104688;1303;25421;-71
2023/03/02 00:31:54;;;;;;;19.30;6.80;;;;;;;-2.04;100.00;101262.05;104182;1303;1002935;-71
2023/03/02 00:34:23;;;;;;;20.00;6.60;;;;;;;-2.11;100.00;101261.94;104185;1303;1003321;-71
2023/03/02 00:36:51;;;;;;;16.60;7.00;;;;;;;-2.16;100.00;101260.04;104683;1303;22552;-71
2023/03/02 00:39:20;;;;;;;17.40;6.70;;;;;;;-2.21;100.00;101263.95;104349;1303;24315;-71
2023/03/02 00:41:48;;;;;;;18.00;7.10;;;;;;;-2.26;100.00;101258.65;104165;1303;1003543;-71
2023/03/02 00:44:17;;;;;;;19.00;7.30;;;;;;;-2.31;100.00;101257.77;104143;1303;1003025;-71
2023/03/02 00:46:46;;;;;;;14.50;6.40;;;;;;;-2.36;100.00;101256.73;104160;1303;1002941;-70
2023/03/02 00:49:16;;;;;;;19.20;7.20;;;;;;;-2.39;100.00;101264.95;104928;1303;25396;-71
2023/03/02 00:51:47;;;;;;;15.30;6.50;;;;;;;-2.41;100.00;101262.38;104854;1303;25347;-71
2023/03/02 00:54:16;;;;;;;20.20;7.20;;;;;;;-2.41;100.00;101270.17;104739;1304;23961;-71
2023/03/02 00:56:45;;;;;;;18.00;7.90;;;;;;;-2.42;100.00;101270.20;104757;1304;26688;-69
2023/03/02 00:59:26;;;;;;;15.90;7.30;;;;;;;-2.44;100.00;101272.93;104771;1304;22555;-70
2023/03/02 01:02:06;;;;;;;20.70;7.30;;;;;;;-2.42;100.00;101278.33;104749;1304;25514;-71
2023/03/02 01:04:39;;;;;;;16.10;6.90;;;;;;;-2.43;100.00;101276.81;104480;1304;24330;-71
2023/03/02 01:07:11;;;;;;;17.00;6.20;;;;;;;-2.48;100.00;101282.96;104025;1304;1003412;-70
2023/03/02 01:09:41;;;;;;;15.00;6.10;;;;;;;-2.53;100.00;101277.17;103843;1304;1002980;-70
2023/03/02 01:12:10;;;;;;;15.80;5.10;;;;;;;-2.58;100.00;101277.70;104766;1304;24289;-70
2023/03/02 01:14:41;;;;;;;20.30;7.50;;;;;;;-2.64;100.00;101274.56;104771;1304;25401;-70
2023/03/02 01:17:10;;;;;;;21.50;6.90;;;;;;;-2.68;100.00;101276.63;104450;1304;22561;-71
2023/03/02 01:19:40;;;;;;;17.30;7.20;;;;;;;-2.69;100.00;101275.08;104555;1305;23692;-70
2023/03/02 01:22:08;;;;;;;17.80;6.30;;;;;;;-2.69;100.00;101273.32;104474;1305;25360;-69
2023/03/02 01:24:43;;;;;;;17.20;6.10;;;;;;;-2.70;100.00;101274.41;104494;1305;25316;-70
2023/03/02 01:27:12;;;;;;;14.70;6.10;;;;;;;-2.70;100.00;101273.88;104487;1305;25492;-71
2023/03/02 01:29:40;;;;;;;13.40;6.10;;;;;;;-2.71;100.00;101273.55;104497;1305;26656;-70
2023/03/02 01:32:09;;;;;;;15.00;6.30;;;;;;;-2.73;100.00;101276.13;104456;1305;25462;-71
2023/03/02 01:34:38;;;;;;;14.40;5.80;;;;;;;-2.77;100.00;101274.52;104551;1305;25463;-71
2023/03/02 01:37:06;;;;;;;13.00;5.50;;;;;;;-2.82;100.00;101265.48;104484;1305;22610;-70
2023/03/02 01:39:35;;;;;;;13.20;5.60;;;;;;;-2.84;100.00;101263.48;103759;1305;1003043;-70
2023/03/02 01:42:05;;;;;;;10.80;4.70;;;;;;;-2.89;100.00;101259.03;103751;1305;1003320;-70
2023/03/02 01:44:38;;;;;;;10.60;4.70;;;;;;;-2.94;100.00;101257.47;103754;1305;1003398;-70
2023/03/02 01:47:14;;;;;;;12.80;5.20;;;;;;;-2.99;100.00;101257.28;104486;1305;25488;-70
2023/03/02 01:49:52;;;;;;;12.20;5.40;;;;;;;-3.04;100.00;101258.71;104483;1305;26797;-71
2023/03/02 01:52:22;;;;;;;12.40;5.50;;;;;;;-3.08;100.00;101260.42;104480;1304;23000;-71
2023/03/02 01:54:52;;;;;;;10.80;4.90;;;;;;;-3.12;100.00;101258.27;104033;1304;1003005;-70
2023/03/02 01:57:22;;;;;;;9.80;4.50;;;;;;;-3.16;100.00;101261.05;103745;1304;1003335;-70
2023/03/02 01:59:58;;;;;;;10.50;4.70;;;;;;;-3.19;100.00;101257.47;104461;1304;24327;-70
2023/03/02 02:02:27;;;;;;;13.70;6.00;;;;;;;-3.21;100.00;101254.19;104480;1304;25526;-71
2023/03/02 02:04:56;;;;;;;12.90;5.70;;;;;;;-3.23;100.00;101255.83;104720;1304;25476;-70
2023/03/02 02:07:24;;;;;;;14.80;6.00;;;;;;;-3.26;100.00;101254.33;104433;1304;24260;-69
2023/03/02 02:09:55;;;;;;;17.50;7.70;;;;;;;-3.29;100.00;101253.56;104806;1304;25284;-70
2023/03/02 02:12:25;;;;;;;20.90;7.40;;;;;;;-3.32;100.00;101252.28;104797;1304;23907;-70
2023/03/02 02:14:59;;;;;;;20.40;7.50;;;;;;;-3.34;100.00;101246.86;104775;1304;25279;-71
2023/03/02 02:17:29;;;;;;;20.10;8.40;;;;;;;-3.35;100.00;101249.54;104486;1304;24420;-70
2023/03/02 02:20:08;;;;;;;20.40;7.90;;;;;;;-3.36;100.00;101248.52;104420;1304;25435;-70
2023/03/02 02:22:36;;;;;;;21.80;8.90;;;;;;;-3.38;100.00;101251.05;103762;1305;1003836;-70
2023/03/02 02:25:09;;;;;;;21.60;8.50;;;;;;;-3.38;100.00;101249.11;104468;1305;22593;-70
2023/03/02 02:27:39;;;;;;;20.10;8.50;;;;;;;-3.38;100.00;101248.76;104487;1305;25454;-69
2023/03/02 02:30:10;;;;;;;25.60;9.30;;;;;;;-3.40;100.00;101246.35;104518;1305;25372;-71
2023/03/02 02:32:38;;;;;;;22.70;9.30;;;;;;;-3.41;100.00;101245.33;103626;1305;1003059;-70
2023/03/02 02:35:13;;;;;;;22.30;9.10;;;;;;;-3.41;100.00;101244.48;103473;1305;1003143;-70
2023/03/02 02:37:45;;;;;;;27.80;9.70;;;;;;;-3.41;100.00;101245.35;103587;1305;1003829;-71
2023/03/02 02:40:21;;;;;;;25.10;10.90;;;;;;;-3.45;100.00;101244.40;103824;1305;1003077;-70
2023/03/02 02:42:50;;;;;;;23.20;9.90;;;;;;;-3.50;100.00;101247.05;104475;1305;26557;-71
2023/03/02 02:45:24;;;;;;;28.50;12.10;;;;;;;-3.53;100.00;101249.80;103630;1305;1003263;-70
2023/03/02 02:47:54;;;;;;;33.50;13.40;;;;;;;-3.55;100.00;101251.27;104453;1305;25351;-70
2023/03/02 02:50:31;;;;;;;27.80;11.10;;;;;;;-3.57;100.00;101251.51;104440;1305;22552;-71
2023/03/02 02:53:14;;;;;;;31.80;12.80;;;;;;;-3.60;100.00;101248.77;104731;1304;25338;-70
2023/03/02 02:55:46;;;;;;;29.80;11.50;;;;;;;-3.62;100.00;101254.16;104465;1304;25287;-70
2023/03/02 02:58:41;;;;;;;34.70;13.90;;;;;;;-3.64;100.00;101260.04;103853;1304;1003049;-70
2023/03/02 03:01:12;;;;;;;34.00;13.20;;;;;;;-3.67;100.00;101263.12;104711;1304;24265;-70
2023/03/02 03:03:45;;;;;;;39.40;14.20;;;;;;;-3.69;100.00;101261.77;104802;1304;23907;-70
2023/03/02 03:06:22;;;;;;;37.80;13.30;;;;;;;-3.70;100.00;101262.16;104603;1283;22564;-70
2023/03/02 03:08:53;;;;;;;37.70;14.10;;;;;;;-3.70;100.00;101263.04;104482;1304;22558;-70
2023/03/02 03:11:27;;;;;;;34.60;13.60;;;;;;;-3.69;100.00;101265.66;104738;1304;22668;-70
2023/03/02 03:14:17;;;;;;;37.10;15.10;;;;;;;-3.68;100.00;101268.24;104462;1304;22588;-70
2023/03/02 03:16:49;;;;;;;31.20;14.00;;;;;;;-3.65;100.00;101262.34;104471;1304;23039;-70
2023/03/02 03:19:25;;;;;;;33.10;13.50;;;;;;;-3.63;100.00;101264.58;103801;1304;1003205;-71
2023/03/02 03:21:56;;;;;;;22.20;10.20;;;;;;;-3.63;100.00;101268.61;104803;1304;25476;-70
2023/03/02 03:24:31;;;;;;;25.10;11.20;;;;;;;-3.64;100.00;101267.60;104737;1304;25311;-71
2023/03/02 03:27:00;;;;;;;30.70;13.60;;;;;;;-3.66;100.00;101269.27;104459;1304;22716;-70
2023/03/02 03:29:30;;;;;;;28.90;12.60;;;;;;;-3.68;100.00;101270.23;104732;1304;22558;-70
2023/03/02 03:32:00;;;;;;;35.30;14.10;;;;;;;-3.70;100.00;101269.04;104018;1304;1002929;-69
2023/03/02 03:34:39;;;;;;;35.20;14.70;;;;;;;-3.73;100.00;101269.49;103737;1304;1003657;-70
2023/03/02 03:37:29;;;;;;;36.50;14.10;;;;;;;-3.76;100.00;101263.05;104796;1304;25339;-70
2023/03/02 03:40:05;;;;;;;30.90;14.20;;;;;;;-3.75;100.00;101269.03;104746;1304;25395;-71
2023/03/02 03:42:38;;;;;;;30.80;14.00;;;;;;;-3.73;100.00;101269.84;104764;1304;25326;-69
2023/03/02 03:45:07;;;;;;;39.10;16.10;;;;;;;-3.71;100.00;101278.03;104083;1304;1003672;-70
2023/03/02 03:47:37;;;;;;;35.90;15.60;;;;;;;-3.67;100.00;101281.63;104790;1304;25561;-70
2023/03/02 03:50:08;;;;;;;39.20;17.40;;;;;;;-3.64;100.00;101283.46;104773;1304;25492;-70
2023/03/02 03:52:37;;;;;;;43.30;19.30;;;;;;;-3.63;100.00;101284.32;104914;1303;25664;-71
2023/03/02 03:55:32;;;;;;;38.60;16.70;;;;;;;-3.62;100.00;101273.89;104121;1303;1002942;-70
2023/03/02 03:58:01;;;;;;;36.60;16.20;;;;;;;-3.61;100.00;101280.21;104899;1303;24418;-71
2023/03/02 04:00:30;;;;;;;32.80;14.00;;;;;;;-3.61;100.00;101280.39;104506;1303;22554;-70
2023/03/02 04:03:02;;;;;;;41.60;18.10;;;;;;;-3.60;100.00;101277.02;104895;1303;22577;-71
2023/03/02 04:05:32;;;;;;;39.90;17.00;;;;;;;-3.58;100.00;101275.17;104970;1303;25637;-72
2023/03/02 04:08:02;;;;;;;25.10;11.90;;;;;;;-3.57;100.00;101276.55;104878;1303;22577;-70
2023/03/02 04:10:33;;;;;;;24.90;12.20;;;;;;;-3.57;100.00;101281.14;104145;1303;1003721;-70
2023/03/02 04:13:03;;;;;;;24.00;12.10;;;;;;;-3.59;100.00;101281.55;104948;1303;25397;-70
2023/03/02 04:15:33;;;;;;;22.80;10.50;;;;;;;-3.62;100.00;101284.48;104557;1303;1002984;-70
2023/03/02 04:18:02;;;;;;;25.10;11.60;;;;;;;-3.66;100.00;101282.84;104892;1303;25478;-70
2023/03/02 04:20:32;;;;;;;22.90;9.90;;;;;;;-3.72;100.00;101281.09;104520;1304;25802;-69
2023/03/02 04:23:00;;;;;;;23.60;10.30;;;;;;;-3.77;100.00;101286.90;104773;1304;25441;-69
2023/03/02 04:25:32;;;;;;;26.60;11.00;;;;;;;-3.82;100.00;101290.92;104780;1304;25329;-70
2023/03/02 04:28:07;;;;;;;29.70;13.00;;;;;;;-3.87;100.00;101286.48;104081;1304;1003363;-70
2023/03/02 04:30:43;;;;;;;33.00;14.40;;;;;;;-3.90;100.00;101281.84;104066;1304;1003044;-69
2023/03/02 04:33:12;;;;;;;42.30;16.50;;;;;;;-3.91;100.00;101280.80;104805;1304;25457;-70
2023/03/02 04:35:41;;;;;;;38.00;16.80;;;;;;;-3.90;100.00;101277.27;104760;1304;22633;-71
2023/03/02 04:38:11;;;;;;;39.00;15.70;;;;;;;-3.90;100.00;101278.45;104762;1304;22581;-69
2023/03/02 04:40:40;;;;;;;48.60;17.70;;;;;;;-3.89;100.00;101279.33;104748;1304;25382;-71
2023/03/02 04:43:09;;;;;;;35.10;15.30;;;;;;;-3.87;100.00;101276.80;104777;1304;25280;-70
2023/03/02 04:45:39;;;;;;;36.90;17.30;;;;;;;-3.86;100.00;101274.29;104027;1304;1003576;-70
2023/03/02 04:48:12;;;;;;;38.50;18.50;;;;;;;-3.83;100.00;101276.14;104766;1304;25421;-69
2023/03/02 04:50:43;;;;;;;36.10;14.70;;;;;;;-3.80;100.00;101278.73;104059;1304;1003711;-71
2023/03/02 04:53:13;;;;;;;34.30;14.70;;;;;;;-3.78;100.00;101281.65;104898;1303;25445;-69
2023/03/02 04:55:41;;;;;;;27.20;13.40;;;;;;;-3.77;100.00;101280.55;104908;1303;22584;-69
2023/03/02 04:58:13;;;;;;;35.50;15.60;;;;;;;-3.77;100.00;101282.30;104191;1303;1002896;-70
2023/03/02 05:00:41;;;;;;;31.90;14.90;;;;;;;-3.77;100.00;101281.77;104899;1303;22633;-70
2023/03/02 05:03:10;;;;;;;34.40;16.20;;;;;;;-3.73;100.00;101279.34;104936;1303;26732;-70
2023/03/02 05:05:38;;;;;;;29.30;12.80;;;;;;;-3.65;100.00;101280.49;104180;1303;1003137;-70
2023/03/02 05:08:07;;;;;;;34.40;12.70;;;;;;;-3.54;100.00;101279.45;104888;1303;25453;-70
2023/03/02 05:10:40;;;;;;;32.30;12.80;;;;;;;-3.41;100.00;101275.32;104955;1303;25440;-70
2023/03/02 05:13:08;;;;;;;40.10;17.40;;;;;;;-3.28;100.00;101275.04;104166;1303;1003881;-70
2023/03/02 05:15:38;;;;;;;40.70;17.80;;;;;;;-3.12;100.00;101272.92;104648;1303;25562;-69
2023/03/02 05:18:09;;;;;;;39.30;16.90;;;;;;;-2.99;100.00;101275.11;104586;1303;26790;-71
2023/03/02 05:20:38;;;;;;;40.10;17.70;;;;;;;-2.87;100.00;101267.62;103257;1304;1003197;-71
2023/03/02 05:23:22;;;;;;;38.40;15.30;;;;;;;-2.76;100.00;101265.98;103907;1304;1003206;-70
2023/03/02 05:25:54;;;;;;;34.90;14.60;;;;;;;-2.66;100.00;101264.73;104561;1304;25459;-73
2023/03/02 05:28:25;;;;;;;30.10;14.50;;;;;;;-2.57;100.00;101271.64;104781;1304;25523;-70
2023/03/02 05:30:54;;;;;;;31.70;13.20;;;;;;;-2.48;100.00;101275.55;104776;1304;25313;-73
2023/03/02 05:33:23;;;;;;;23.20;10.70;;;;;;;-2.39;100.00;101280.88;104721;1304;22768;-71
2023/03/02 05:35:51;;;;;;;24.50;9.90;;;;;;;-2.31;100.00;101280.36;104759;1304;25470;-70
2023/03/02 05:38:20;;;;;;;21.60;9.30;;;;;;;-2.21;100.00;101285.66;104498;1304;23698;-71
2023/03/02 05:40:49;;;;;;;20.30;9.50;;;;;;;-2.12;100.00;101290.10;103717;1304;1003686;-71
2023/03/02 05:43:19;;;;;;;17.30;7.30;;;;;;;-2.04;100.00;101292.09;104750;1304;25459;-70
2023/03/02 05:45:48;;;;;;;18.20;7.20;;;;;;;-1.94;100.00;101289.23;104791;1304;25463;-71
2023/03/02 05:48:18;;;;;;;19.70;8.00;;;;;;;-1.85;100.00;101290.10;104745;1304;26636;-72
2023/03/02 05:50:47;;;;;;;18.20;7.30;;;;;;;-1.76;100.00;101290.98;104717;1304;25370;-72
2023/03/02 05:53:15;;;;;;;18.80;7.40;;;;;;;-1.65;100.00;101290.38;104145;1303;1003324;-76
2023/03/02 05:55:44;;;;;;;21.80;7.40;;;;;;;-1.54;100.00;101292.75;104873;1303;25376;-76
2023/03/02 05:58:14;;;;;;;18.40;7.10;;;;;;;-1.43;100.00;101292.30;104412;1305;22633;-75
2023/03/02 06:00:49;;;;;;;20.70;8.70;;;;;;;-1.32;100.00;101286.19;104427;1305;26540;-76
2023/03/02 06:03:18;;;;;;;23.70;8.20;;;;;;;-1.22;100.00;101286.66;103833;1305;1003452;-74
2023/03/02 06:05:51;;;;;;;25.10;9.90;;;;;;;-1.13;100.00;101287.84;104503;1305;25414;-76
2023/03/02 06:08:21;;;;;;;23.00;9.70;;;;;;;-1.03;100.00;101293.80;104497;1305;25426;-74
2023/03/02 06:10:54;;;;;;;24.80;9.80;;;;;;;-0.95;100.00;101297.34;103813;1305;1003638;-75
2023/03/02 06:13:23;;;;;;;;;;;;;;;-0.86;100.00;101299.98;103811;1305;1003048;-78
2023/03/02 06:15:51;;;;;;;16.10;6.80;;;;;;;-0.77;100.00;101304.52;104509;1305;25351;-78
2023/03/02 06:18:20;;;;;;;17.40;6.40;;;;;;;-0.66;100.00;101306.91;104483;1305;22703;-75
2023/03/02 06:20:49;;;;;;;13.40;5.90;;;;;;;-0.56;100.00;101309.98;104474;1305;24263;-74
2023/03/02 06:23:18;;;;;;;10.60;5.30;;;;;;;-0.46;100.00;101315.04;104510;1305;25476;-76
2023/03/02 06:25:47;;;;;;;14.70;6.40;;;;;;;-0.38;100.00;101317.67;104523;1299;25612;-74
2023/03/02 06:28:18;;;;;;;16.50;7.10;;;;;;;-0.28;100.00;101325.05;104478;1299;26669;-75
2023/03/02 06:30:47;;;;;;;12.40;6.20;;;;;;;-0.17;100.00;101329.30;104488;1305;22552;-75
2023/03/02 06:33:20;;;;;;;15.60;7.20;;;;;;;-0.04;100.00;101330.66;104520;1304;26556;-74
2023/03/02 06:35:49;;;;;;;25.90;9.70;;;;;;;0.10;100.00;101340.27;104536;1298;22578;-74
2023/03/02 06:38:17;;;;;;;24.10;11.00;;;;;;;0.27;100.00;101344.27;104537;1304;22556;-74
2023/03/02 06:40:46;;;;;;;19.00;8.60;;;;;;;0.43;100.00;101345.10;104494;1302;24861;-78
2023/03/02 06:43:15;;;;;;;18.60;7.90;;;;;;;0.62;100.00;101347.93;104517;1304;25472;-74
2023/03/02 06:45:44;;;;;;;17.20;7.30;;;;;;;0.80;100.00;101355.01;104456;1301;24397;-75
2023/03/02 06:48:12;;;;;;;17.70;6.40;;;;;;;0.98;100.00;101362.31;103815;1304;1003282;-73
2023/03/02 06:50:41;;;;;;;15.70;6.40;;;;;;;1.13;100.00;101363.68;104564;1304;25463;-73
2023/03/02 06:53:11;;;;;;;16.80;6.70;;;;;;;1.27;100.00;101369.86;104414;1298;25386;-74
2023/03/02 06:55:39;;;;;;;13.20;5.70;;;;;;;1.39;100.00;101379.23;104486;1298;22549;-70
2023/03/02 06:58:11;;;;;;;13.40;6.40;;;;;;;1.52;100.00;101386.91;104684;1304;26642;-70
2023/03/02 07:00:40;;;;;;;16.10;6.50;;;;;;;1.66;100.00;101392.60;104779;1304;24271;-70
2023/03/02 07:03:11;;;;;;;21.20;8.70;;;;;;;1.75;100.00;101399.74;104780;1296;25503;-69
2023/03/02 07:05:40;;;;;;;14.60;6.60;;;;;;;1.89;100.00;101411.10;104883;1303;25488;-70
2023/03/02 07:08:14;;;;;;;15.90;7.20;;;;;;;2.05;100.00;101417.56;104820;1296;25297;-70
2023/03/02 07:10:43;;;;;;;18.00;7.60;;;;;;;2.24;100.00;101418.67;104761;1304;24415;-67
2023/03/02 07:13:11;;;;;;;19.80;7.40;;;;;;;2.38;100.00;101422.17;103959;1304;1005131;-68
2023/03/02 07:15:44;;;;;;;13.50;5.90;;;;;;;2.54;100.00;101427.35;104769;1296;25315;-68
2023/03/02 07:18:14;;;;;;;17.80;5.90;;;;;;;2.71;100.00;101433.50;104774;1302;25280;-68
2023/03/02 07:20:42;;;;;;;16.90;7.80;;;;;;;2.83;100.00;101432.30;104008;1299;1003257;-71
2023/03/02 07:23:11;;;;;;;17.40;7.70;;;;;;;2.86;100.00;101437.66;104728;1296;25325;-70
2023/03/02 07:25:40;;;;;;;13.80;6.40;;;;;;;2.86;100.00;101440.86;104769;1299;25407;-69
2023/03/02 07:28:09;;;;;;;12.70;5.60;;;;;;;2.89;100.00;101439.80;104115;1298;1003069;-67
2023/03/02 07:30:39;;;;;;;10.20;5.10;;;;;;;2.90;100.00;101442.95;104993;1298;25313;-71
2023/03/02 07:33:07;;;;;;;11.90;5.00;;;;;;;2.94;100.00;101445.77;104623;1302;25382;-74
2023/03/02 07:35:36;;;;;;;16.30;5.70;;;;;;;3.03;100.00;101430.28;104896;1304;25287;-71
2023/03/02 07:38:05;;;;;;;11.40;4.70;;;;;;;3.15;100.00;101414.59;104042;1301;1002933;-70
2023/03/02 07:40:33;;;;;;;12.20;5.30;;;;;;;3.21;100.00;101401.60;104757;1304;22553;-74
2023/03/02 07:43:02;;;;;;;13.60;5.00;;;;;;;3.35;100.00;101390.08;104675;1304;25537;-73
2023/03/02 07:45:32;;;;;;;11.10;5.10;;;;;;;3.44;100.00;101381.22;104028;1296;1003825;-74
2023/03/02 07:48:01;;;;;;;13.80;4.50;;;;;;;3.41;100.00;101371.53;104662;1304;22539;-71
2023/03/02 07:50:31;;;;;;;11.80;5.00;;;;;;;3.41;100.00;101357.26;103907;1296;1003028;-72
2023/03/02 07:53:00;;;;;;;11.30;5.20;;;;;;;3.53;100.00;101348.55;103964;1297;1003096;-74
2023/03/02 07:55:29;;;;;;;9.50;4.90;;;;;;;3.69;100.00;101336.17;104644;1301;25436;-71
2023/03/02 07:57:59;;;;;;;11.80;4.70;;;;;;;3.83;100.00;101330.64;104694;1298;22552;-72
2023/03/02 08:00:28;;;;;;;18.60;7.40;;;;;;;3.90;100.00;101318.09;104722;1297;26544;-69
2023/03/02 08:02:57;;;;;;;12.80;6.00;;;;;;;3.99;100.00;101301.11;104712;1302;25338;-70
2023/03/02 08:05:27;;;;;;;18.80;6.70;;;;;;;4.07;100.00;101289.34;103887;1304;1003490;-77
2023/03/02 08:07:56;;;;;;;13.50;6.10;;;;;;;4.04;100.00;101264.25;104754;1304;24381;-76
2023/03/02 08:10:25;;;;;;;11.30;4.80;;;;;;;3.99;100.00;101250.09;104523;1304;25463;-75
2023/03/02 08:12:54;;;;;;;11.40;4.60;;;;;;;4.09;100.00;101231.23;104849;1298;22647;-71
2023/03/02 08:15:24;;;;;;;9.50;4.60;;;;;;;4.16;100.00;101208.48;104880;1298;23294;-72
2023/03/02 08:17:52;;;;;;;12.40;4.90;;;;;;;4.19;100.00;101190.07;104550;1303;25351;-69
2023/03/02 08:20:21;;;;;;;10.00;4.70;;;;;;;4.22;100.00;101166.30;104672;1304;25479;-71
2023/03/02 08:22:51;;;;;;;11.50;5.50;;;;;;;4.46;100.00;101149.17;104724;1304;25388;-72
2023/03/02 08:25:19;;;;;;;8.70;4.60;;;;;;;4.55;100.00;101130.13;104794;1298;22578;-72
2023/03/02 08:27:48;;;;;;;10.60;4.40;;;;;;;4.59;100.00;101110.61;104559;1303;25529;-72
2023/03/02 08:30:21;;;;;;;11.90;4.20;;;;;;;4.75;100.00;101095.52;104890;1296;25439;-70
2023/03/02 08:32:50;;;;;;;12.20;4.50;;;;;;;4.86;100.00;101081.05;104768;1298;23938;-70
2023/03/02 08:35:20;;;;;;;7.90;3.60;;;;;;;4.89;100.00;101074.52;104528;1304;22551;-72
2023/03/02 08:37:50;;;;;;;10.80;4.60;;;;;;;4.88;100.00;101061.80;104762;1304;25609;-70
2023/03/02 08:40:20;;;;;;;8.70;3.80;;;;;;;4.90;100.00;101047.90;104653;1296;25283;-67
2023/03/02 08:42:55;;;;;;;6.70;3.40;;;;;;;5.04;100.00;101033.60;104677;1296;22616;-69
2023/03/02 08:45:24;;;;;;;9.90;3.20;;;;;;;5.22;100.00;101011.27;104782;1296;25528;-69
2023/03/02 08:47:53;;;;;;;7.00;3.50;;;;;;;5.25;100.00;100972.05;104799;1303;22623;-74
2023/03/02 08:50:22;;;;;;;16.70;3.30;;;;;;;5.27;100.00;100927.70;103982;1296;1003744;-75
2023/03/02 08:52:51;;;;;;;7.80;3.20;;;;;;;5.39;100.00;100886.13;104629;1296;25371;-75
2023/03/02 08:55:20;;;;;;;6.20;3.10;;;;;;;5.46;100.00;100845.88;104667;1301;25456;-77
2023/03/02 08:57:49;;;;;;;9.40;2.80;;;;;;;5.52;100.00;100797.98;104690;1298;22588;-76
2023/03/02 09:00:19;;;;;;;10.30;3.50;;;;;;;5.64;100.00;100762.67;104456;1299;25307;-76
2023/03/02 09:02:48;;;;;;;10.60;3.90;;;;;;;5.75;100.00;100736.44;104546;1305;25514;-76
2023/03/02 09:05:16;;;;;;;6.70;3.30;;;;;;;5.84;100.00;100710.35;104482;1298;25471;-72
2023/03/02 09:07:45;;;;;;;6.10;2.70;;;;;;;5.76;100.00;100664.81;104406;1305;25479;-70
2023/03/02 09:10:16;;;;;;;19.50;8.60;;;;;;;5.68;100.00;100640.41;104515;1302;25253;-72
2023/03/02 09:12:47;;;;;;;24.60;8.50;;;;;;;5.70;100.00;100651.89;104529;1305;25392;-71
2023/03/02 09:15:16;;;;;;;13.00;4.80;;;;;;;5.54;100.00;100668.39;104569;1305;25489;-74
2023/03/02 09:17:51;;;;;;;17.40;5.50;;;;;;;5.48;100.00;100683.33;104465;1299;25341;-68
2023/03/02 09:20:22;;;;;;;9.20;3.60;;;;;;;5.67;100.00;100680.73;103660;1298;1016286;-68
2023/03/02 09:22:51;;;;;;;7.40;3.50;;;;;;;5.86;100.00;100663.06;104511;1298;25404;-66
2023/03/02 09:25:19;;;;;;;11.30;3.90;;;;;;;6.11;100.00;100644.96;104491;1298;22559;-68
2023/03/02 09:27:49;;;;;;;4.30;3.00;;;;;;;6.28;100.00;100642.47;104527;1302;24633;-67
2023/03/02 09:30:18;;;;;;;8.70;2.90;;;;;;;6.36;100.00;100604.42;104579;1297;25306;-75
2023/03/02 09:32:47;;;;;;;13.30;4.00;;;;;;;6.28;100.00;100553.84;104633;1297;24282;-68
2023/03/02 09:35:16;;;;;;;10.70;3.60;;;;;;;6.19;100.00;100524.21;104858;1298;22551;-69
2023/03/02 09:37:45;;;;;;;7.00;3.90;;;;;;;6.09;100.00;100509.96;104873;1298;22631;-71
2023/03/02 09:40:22;;;;;;;13.90;3.90;;;;;;;6.14;100.00;100512.79;104551;1298;22742;-67
2023/03/02 09:43:16;;;;;;;10.70;4.00;;;;;;;6.24;100.00;100505.81;103911;1305;1002469;-68
2023/03/02 09:45:53;;;;;;;14.20;5.90;;;;;;;6.21;100.00;100493.08;104570;1305;22551;-75
2023/03/02 09:48:52;;;;;;;8.70;3.50;;;;;;;6.24;100.00;100504.63;103883;1306;1003779;-76
2023/03/02 09:51:31;;;;;;;9.40;4.20;;;;;;;6.33;100.00;100513.11;105047;1297;26532;-76
2023/03/02 09:54:09;;;;;;;25.10;10.70;;;;;;;6.38;100.00;100516.48;104775;1298;24243;-73
2023/03/02 09:56:48;;;;;;;12.80;5.50;;;;;;;6.50;100.00;100524.94;104661;1298;23168;-75
2023/03/02 09:59:37;;;;;;;9.40;4.30;;;;;;;6.57;100.00;100520.42;104741;1298;23083;-76
2023/03/02 10:02:14;;;;;;;21.60;5.50;;;;;;;6.62;100.00;100523.70;104388;1305;25369;-76
2023/03/02 10:04:47;;;;;;;21.80;7.40;;;;;;;6.64;100.00;100530.04;104618;1298;25418;-74
2023/03/02 10:07:23;;;;;;;9.20;3.80;;;;;;;6.69;100.00;100526.55;105029;1298;22555;-74
2023/03/02 10:09:51;;;;;;;12.20;4.70;;;;;;;6.77;100.00;100512.56;104722;1298;25331;-75
2023/03/02 10:12:34;;;;;;;14.20;4.70;;;;;;;6.91;100.00;100508.48;104632;1298;22572;-79
2023/03/02 10:15:42;;;;;;;11.10;3.60;;;;;;;7.02;100.00;100496.36;104617;1305;25324;-68
2023/03/02 10:18:29;;;;;;;13.30;5.00;;;;;;;6.91;100.00;100476.89;104668;1298;26539;-76
2023/03/02 10:21:08;;;;;;;10.20;4.40;;;;;;;6.90;100.00;100484.91;104554;1298;25389;-78
2023/03/02 10:24:04;;;;;;;11.90;4.60;;;;;;;6.95;100.00;100490.04;104600;1297;23902;-75
2023/03/02 10:26:36;;;;;;;;;;;;;;;7.08;100.00;100489.58;104452;1298;22533;-70
2023/03/02 10:29:48;;;;;;;8.70;3.50;;;;;;;7.14;100.00;100494.20;104453;1306;24278;-77
2023/03/02 10:32:25;;;;;;;14.20;4.80;;;;;;;7.25;100.00;100506.92;104122;1298;26547;-72
2023/03/02 10:35:01;;;;;;;8.80;3.40;;;;;;;7.19;100.00;100496.84;104844;1299;25083;-80
2023/03/02 10:37:30;;;;;;;11.80;4.70;;;;;;;7.27;100.00;100492.19;104862;1302;22687;-70
2023/03/02 10:40:10;;;;;;;14.40;5.30;;;;;;;7.35;100.00;100488.80;105103;1297;25465;-83
2023/03/02 10:42:42;;;;;;;27.40;9.30;;;;;;;7.49;100.00;100496.99;104868;1298;23036;-78
2023/03/02 10:45:28;;;;;;;22.60;8.20;;;;;;;7.64;100.00;100506.73;104574;1304;23889;-80
2023/03/02 10:48:12;;;;;;;11.90;5.10;;;;;;;7.72;100.00;100507.44;104723;1301;23293;-77
2023/03/02 10:50:41;;;;;;;9.10;4.00;;;;;;;7.77;100.00;100516.35;104758;1305;22582;-82
2023/03/02 10:53:17;;;;;;;10.70;3.90;;;;;;;7.70;100.00;100517.89;105410;1298;25459;-77
2023/03/02 10:55:51;;;;;;;8.30;3.60;;;;;;;7.49;100.00;100502.36;104477;1296;1003286;-70
2023/03/02 10:58:24;;;;;;;9.10;4.30;;;;;;;7.31;100.00;100502.23;104538;1299;24452;-70
2023/03/02 11:00:56;;;;;;;10.50;4.00;;;;;;;7.26;100.00;100510.70;104550;1301;25478;-76
2023/03/02 11:03:24;;;;;;;9.10;4.00;;;;;;;7.21;100.00;100510.67;104491;1305;22584;-70
2023/03/02 11:05:54;;;;;;;7.50;3.20;;;;;;;7.09;100.00;100521.71;104482;1298;25438;-71
2023/03/02 11:08:27;;;;;;;4.80;3.00;;;;;;;7.03;100.00;100538.02;104659;1298;23366;-70
2023/03/02 11:10:59;;;;;;;3.60;2.70;;;;;;;7.00;100.00;100552.45;104504;1298;25526;-72
2023/03/02 11:13:31;;;;;;;7.40;3.20;;;;;;;7.09;100.00;100567.12;104536;1298;22582;-70
2023/03/02 11:16:20;;;;;;;11.30;3.80;;;;;;;7.28;100.00;100595.70;104602;1298;25335;-71
2023/03/02 11:18:49;;;;;;;10.60;4.90;;;;;;;7.55;100.00;100601.19;104489;1299;25413;-72
2023/03/02 11:21:31;;;;;;;9.80;3.10;;;;;;;7.54;100.00;100581.37;103904;1305;1003784;-71
2023/03/02 11:24:04;;;;;;;;;;;;;;;7.34;100.00;100566.66;104581;1285;22596;-70